createdAt,value
2023-08-21T00:00:42.252Z,1.30
2023-08-21T00:03:08.755Z,1.35
2023-08-21T00:05:35.245Z,1.10
2023-08-21T00:08:01.757Z,1.10
2023-08-21T00:10:28.187Z,0.90
2023-08-21T00:12:54.850Z,1.03
2023-08-21T00:15:21.311Z,1.02
2023-08-21T00:17:48.116Z,1.20
2023-08-21T00:20:14.597Z,1.10
2023-08-21T00:22:41.262Z,1.10
2023-08-21T00:25:07.854Z,1.30
2023-08-21T00:27:34.299Z,0.98
2023-08-21T00:30:01.585Z,0.93
2023-08-21T00:32:28.124Z,1.10
2023-08-21T00:34:54.595Z,1.15
2023-08-21T00:37:21.023Z,1.17
2023-08-21T00:39:47.461Z,1.58
2023-08-21T00:42:13.879Z,0.80
2023-08-21T00:44:40.389Z,1.20
2023-08-21T00:47:07.334Z,1.05
2023-08-21T00:49:34.065Z,0.90
2023-08-21T00:52:01.153Z,1.42
2023-08-21T00:54:27.669Z,1.10
2023-08-21T00:56:54.238Z,1.13
2023-08-21T00:59:21.198Z,1.02
2023-08-21T01:01:47.649Z,1.20
2023-08-21T01:04:14.269Z,1.08
2023-08-21T01:06:40.715Z,1.50
2023-08-21T01:09:18.804Z,1.30
2023-08-21T01:11:50.730Z,1.15
2023-08-21T01:14:23.944Z,1.23
2023-08-21T01:16:52.630Z,1.35
2023-08-21T01:19:25.760Z,1.08
2023-08-21T01:21:52.867Z,1.13
2023-08-21T01:24:22.344Z,1.17
2023-08-21T01:26:48.807Z,1.10
2023-08-21T01:29:15.199Z,0.90
2023-08-21T01:31:44.121Z,1.20
2023-08-21T01:34:12.281Z,1.35
2023-08-21T01:36:38.720Z,1.15
2023-08-21T01:39:07.746Z,1.07
2023-08-21T01:41:34.134Z,1.00
2023-08-21T01:44:00.756Z,1.30
2023-08-21T01:46:27.212Z,1.10
2023-08-21T01:48:53.639Z,1.13
2023-08-21T01:51:20.520Z,1.20
2023-08-21T01:53:46.996Z,1.13
2023-08-21T01:56:13.442Z,1.25
2023-08-21T01:58:40.895Z,1.20
2023-08-21T02:01:07.347Z,0.98
2023-08-21T02:03:34.137Z,1.10
2023-08-21T02:06:00.766Z,1.50
2023-08-21T02:08:33.878Z,1.00
2023-08-21T02:11:00.465Z,1.35
2023-08-21T02:13:26.861Z,1.00
2023-08-21T02:15:53.405Z,1.33
2023-08-21T02:18:19.842Z,1.02
2023-08-21T02:20:47.835Z,1.70
2023-08-21T02:23:14.280Z,1.40
2023-08-21T02:25:41.925Z,1.20
2023-08-21T02:28:08.332Z,1.13
2023-08-21T02:30:34.827Z,1.20
2023-08-21T02:33:01.276Z,1.30
2023-08-21T02:35:27.720Z,1.15
2023-08-21T02:37:54.280Z,1.30
2023-08-21T02:40:20.715Z,1.80
2023-08-21T02:42:47.160Z,1.20
2023-08-21T02:45:13.620Z,1.10
2023-08-21T02:47:40.429Z,1.20
2023-08-21T02:50:07.939Z,1.25
2023-08-21T02:52:34.948Z,1.13
2023-08-21T02:55:01.514Z,1.13
2023-08-21T02:57:28.406Z,1.02
2023-08-21T02:59:55.387Z,1.27
2023-08-21T03:02:22.168Z,1.40
2023-08-21T03:04:48.942Z,1.17
2023-08-21T03:07:15.734Z,1.40
2023-08-21T03:09:42.504Z,1.13
2023-08-21T03:12:09.267Z,1.40
2023-08-21T03:14:35.790Z,1.00
2023-08-21T03:17:02.251Z,1.37
2023-08-21T03:19:29.477Z,1.27
2023-08-21T03:21:55.884Z,1.42
2023-08-21T03:24:23.036Z,1.25
2023-08-21T03:26:49.575Z,1.40
2023-08-21T03:29:16.060Z,1.40
2023-08-21T03:31:43.002Z,1.70
2023-08-21T03:34:09.644Z,1.60
2023-08-21T03:36:38.252Z,1.65
2023-08-21T03:39:07.801Z,2.05
2023-08-21T03:41:38.254Z,1.90
2023-08-21T03:44:04.830Z,1.88
2023-08-21T03:46:31.381Z,1.83
2023-08-21T03:48:57.871Z,2.30
2023-08-21T03:51:24.650Z,2.20
2023-08-21T03:53:51.397Z,2.00
2023-08-21T03:56:17.881Z,2.08
2023-08-21T03:58:44.332Z,2.03
2023-08-21T04:01:11.286Z,2.17
2023-08-21T04:03:38.012Z,2.20
2023-08-21T04:06:04.583Z,2.83
2023-08-21T04:08:31.023Z,2.50
2023-08-21T04:11:00.971Z,2.60
2023-08-21T04:13:28.757Z,2.40
2023-08-21T04:15:55.630Z,2.88
2023-08-21T04:18:34.624Z,2.50
2023-08-21T04:21:05.890Z,2.85
2023-08-21T04:23:32.385Z,3.20
2023-08-21T04:26:03.290Z,2.97
2023-08-21T04:28:33.586Z,3.03
2023-08-21T04:31:01.220Z,2.77
2023-08-21T04:33:31.388Z,3.40
2023-08-21T04:35:57.997Z,3.05
2023-08-21T04:38:24.976Z,3.05
2023-08-21T04:40:51.649Z,2.72
2023-08-21T04:43:19.025Z,2.70
2023-08-21T04:45:54.266Z,2.70
2023-08-21T04:48:23.149Z,2.80
2023-08-21T04:50:50.253Z,3.00
2023-08-21T04:53:17.264Z,3.10
2023-08-21T04:55:44.014Z,3.30
2023-08-21T04:58:11.457Z,3.47
2023-08-21T05:00:38.430Z,2.80
2023-08-21T05:03:06.849Z,3.55
2023-08-21T05:05:33.377Z,3.13
2023-08-21T05:07:59.813Z,3.20
2023-08-21T05:10:26.291Z,3.30
2023-08-21T05:12:53.422Z,2.92
2023-08-21T05:15:19.854Z,3.25
2023-08-21T05:17:46.862Z,3.20
2023-08-21T05:20:15.838Z,2.90
2023-08-21T05:22:42.398Z,2.80
2023-08-21T05:25:11.129Z,2.90
2023-08-21T05:27:38.035Z,3.25
2023-08-21T05:30:04.850Z,3.63
2023-08-21T05:32:32.820Z,3.00
2023-08-21T05:34:59.905Z,2.97
2023-08-21T05:37:28.135Z,3.30
2023-08-21T05:39:56.844Z,3.00
2023-08-21T05:42:23.462Z,3.08
2023-08-21T05:44:50.737Z,3.27
2023-08-21T05:47:17.496Z,2.90
2023-08-21T05:49:44.008Z,3.20
2023-08-21T05:52:10.827Z,2.75
2023-08-21T05:54:37.332Z,2.83
2023-08-21T05:57:04.298Z,3.13
2023-08-21T05:59:34.024Z,3.58
2023-08-21T06:02:02.785Z,2.70
2023-08-21T06:04:29.612Z,2.60
2023-08-21T06:07:01.444Z,3.22
2023-08-21T06:09:30.411Z,3.00
2023-08-21T06:11:56.801Z,2.80
2023-08-21T06:14:29.789Z,3.05
2023-08-21T06:17:03.315Z,2.97
2023-08-21T06:19:30.357Z,3.28
2023-08-21T06:21:57.151Z,2.57
2023-08-21T06:24:23.986Z,3.40
2023-08-21T06:26:55.541Z,3.05
2023-08-21T06:29:22.040Z,2.95
2023-08-21T06:31:49.085Z,2.38
2023-08-21T06:34:15.802Z,3.03
2023-08-21T06:36:42.211Z,2.50
2023-08-21T06:39:08.748Z,2.83
2023-08-21T06:41:35.418Z,2.75
2023-08-21T06:44:02.547Z,2.78
2023-08-21T06:46:29.965Z,2.40
2023-08-21T06:48:57.030Z,2.42
2023-08-21T06:51:25.516Z,2.35
2023-08-21T06:53:51.968Z,2.08
2023-08-21T06:56:18.637Z,2.92
2023-08-21T06:58:45.050Z,2.43
2023-08-21T07:01:11.571Z,3.17
2023-08-21T07:03:38.430Z,2.83
2023-08-21T07:06:04.977Z,2.10
2023-08-21T07:08:31.535Z,2.25
2023-08-21T07:10:58.014Z,2.03
2023-08-21T07:13:24.916Z,2.28
2023-08-21T07:15:53.493Z,2.00
2023-08-21T07:18:20.034Z,1.65
2023-08-21T07:20:46.529Z,1.77
2023-08-21T07:23:12.963Z,2.33
2023-08-21T07:25:39.442Z,2.60
2023-08-21T07:28:05.955Z,1.67
2023-08-21T07:30:34.782Z,2.00
2023-08-21T07:33:03.387Z,1.65
2023-08-21T07:35:29.948Z,1.93
2023-08-21T07:37:56.381Z,1.42
2023-08-21T07:40:22.883Z,1.02
2023-08-21T07:42:49.340Z,1.20
2023-08-21T07:45:15.770Z,0.95
2023-08-21T07:47:42.152Z,0.93
2023-08-21T07:50:09.032Z,1.20
2023-08-21T07:52:36.369Z,1.10
2023-08-21T07:55:04.084Z,0.80
2023-08-21T07:57:31.657Z,0.90
2023-08-21T07:59:58.117Z,1.10
2023-08-21T08:02:24.857Z,0.98
2023-08-21T08:04:51.436Z,1.13
2023-08-21T08:07:17.916Z,1.00
2023-08-21T08:09:44.452Z,1.10
2023-08-21T08:12:10.936Z,1.33
2023-08-21T08:14:37.327Z,1.05
2023-08-21T08:17:03.836Z,1.30
2023-08-21T08:19:30.305Z,0.90
2023-08-21T08:21:56.773Z,1.17
2023-08-21T08:24:23.448Z,1.50
2023-08-21T08:26:50.022Z,1.40
2023-08-21T08:29:16.507Z,0.90
2023-08-21T08:31:43.081Z,1.10
2023-08-21T08:34:09.594Z,0.80
2023-08-21T08:36:36.184Z,1.20
2023-08-21T08:39:02.632Z,1.08
2023-08-21T08:41:29.443Z,0.95
2023-08-21T08:43:57.628Z,1.20
2023-08-21T08:46:24.616Z,0.73
2023-08-21T08:52:01.147Z,0.88
2023-08-21T08:54:27.968Z,1.20
2023-08-21T08:56:54.802Z,1.05
2023-08-21T08:59:21.501Z,0.80
2023-08-21T09:01:49.902Z,1.13
2023-08-21T09:04:16.453Z,1.10
2023-08-21T09:06:42.964Z,1.40
2023-08-21T09:09:11.667Z,1.60
2023-08-21T09:11:43.049Z,1.45
2023-08-21T09:14:10.770Z,1.40
2023-08-21T09:16:37.412Z,1.50
2023-08-21T09:19:03.805Z,1.25
2023-08-21T09:21:30.316Z,1.20
2023-08-21T09:23:58.036Z,1.60
2023-08-21T09:26:24.900Z,1.20
2023-08-21T09:28:52.788Z,1.17
2023-08-21T09:31:30.974Z,1.10
2023-08-21T09:33:58.339Z,1.33
2023-08-21T09:36:25.466Z,1.15
2023-08-21T09:38:52.531Z,0.90
2023-08-21T09:41:22.452Z,1.50
2023-08-21T09:43:49.056Z,0.90
2023-08-21T09:46:17.393Z,1.02
2023-08-21T09:48:44.939Z,1.33
2023-08-21T09:51:12.199Z,0.80
2023-08-21T09:53:38.895Z,0.80
2023-08-21T09:56:08.455Z,0.68
2023-08-21T09:58:36.032Z,0.90
2023-08-21T10:01:07.006Z,0.73
2023-08-21T10:03:34.139Z,0.60
2023-08-21T10:06:00.872Z,0.80
2023-08-21T10:08:28.488Z,0.70
2023-08-21T10:10:55.576Z,1.02
2023-08-21T10:13:22.297Z,1.13
2023-08-21T10:15:49.160Z,0.60
2023-08-21T10:18:19.339Z,1.08
2023-08-21T10:20:45.757Z,1.08
2023-08-21T10:23:24.376Z,1.33
2023-08-21T10:28:26.536Z,0.80
2023-08-21T10:30:53.346Z,1.02
2023-08-21T10:33:39.909Z,0.90
2023-08-21T10:36:06.430Z,1.00
2023-08-21T10:38:32.851Z,1.20
2023-08-21T10:41:06.471Z,1.00
2023-08-21T10:43:45.738Z,0.90
2023-08-21T10:46:12.829Z,0.88
2023-08-21T10:48:40.006Z,0.80
2023-08-21T10:51:07.338Z,1.20
2023-08-21T10:53:34.277Z,1.00
2023-08-21T10:56:04.405Z,1.00
2023-08-21T10:58:42.652Z,0.90
2023-08-21T11:01:09.204Z,1.00
2023-08-21T11:03:39.016Z,0.98
2023-08-21T11:06:06.422Z,1.17
2023-08-21T11:08:34.059Z,1.35
2023-08-21T11:11:01.117Z,1.30
2023-08-21T11:13:27.557Z,1.25
2023-08-21T11:16:04.423Z,1.13
2023-08-21T11:18:34.923Z,0.93
2023-08-21T11:21:05.400Z,0.85
2023-08-21T11:23:33.789Z,1.35
2023-08-21T11:26:07.117Z,1.15
2023-08-21T11:28:45.446Z,1.27
2023-08-21T11:31:11.870Z,1.70
2023-08-21T11:33:39.013Z,1.40
2023-08-21T11:36:05.758Z,1.33
2023-08-21T11:38:32.214Z,1.55
2023-08-21T11:40:58.981Z,1.20
2023-08-21T11:43:35.981Z,1.60
2023-08-21T11:46:03.743Z,1.00
2023-08-21T11:48:30.664Z,1.33
2023-08-21T11:50:57.303Z,1.13
2023-08-21T11:53:37.018Z,1.10
2023-08-21T11:56:04.250Z,1.37
2023-08-21T11:58:30.702Z,1.20
2023-08-21T12:01:05.022Z,1.45
2023-08-21T12:03:36.345Z,1.42
2023-08-21T12:06:05.281Z,1.50
2023-08-21T12:08:31.777Z,1.70
2023-08-21T12:10:58.220Z,1.42
2023-08-21T12:13:24.668Z,1.45
2023-08-21T12:15:51.123Z,1.52
2023-08-21T12:18:17.552Z,1.35
2023-08-21T12:20:43.988Z,1.27
2023-08-21T12:23:10.426Z,1.80
2023-08-21T12:25:36.914Z,1.27
2023-08-21T12:28:09.584Z,1.23
2023-08-21T12:30:36.840Z,1.52
2023-08-21T12:33:12.787Z,1.13
2023-08-21T12:35:47.728Z,1.30
2023-08-21T12:38:14.138Z,1.33
2023-08-21T12:40:40.948Z,1.02
2023-08-21T12:43:07.371Z,1.23
2023-08-21T12:45:35.111Z,1.13
2023-08-21T12:48:01.698Z,1.23
2023-08-21T12:50:28.240Z,1.33
2023-08-21T12:52:54.649Z,0.88
2023-08-21T12:55:21.085Z,1.23
2023-08-21T12:57:47.484Z,1.00
2023-08-21T13:00:14.129Z,1.20
2023-08-21T13:02:41.425Z,1.20
2023-08-21T13:05:08.425Z,0.93
2023-08-21T13:07:34.916Z,1.00
2023-08-21T13:10:01.669Z,0.90
2023-08-21T13:12:28.204Z,1.20
2023-08-21T13:14:54.628Z,1.10
2023-08-21T13:17:21.046Z,1.23
2023-08-21T13:19:47.455Z,0.80
2023-08-21T13:22:13.914Z,0.70
2023-08-21T13:24:40.349Z,1.10
2023-08-21T13:27:06.726Z,0.80
2023-08-21T13:29:33.357Z,1.30
2023-08-21T13:31:59.920Z,1.00
2023-08-21T13:34:26.352Z,0.87
2023-08-21T13:36:53.540Z,0.80
2023-08-21T13:39:19.949Z,0.70
2023-08-21T13:41:46.422Z,0.70
2023-08-21T13:44:12.866Z,1.10
2023-08-21T13:46:39.345Z,0.80
2023-08-21T13:49:05.743Z,0.88
2023-08-21T13:51:32.178Z,0.82
2023-08-21T13:53:58.566Z,0.73
2023-08-21T13:56:25.094Z,0.90
2023-08-21T13:58:51.538Z,0.60
2023-08-21T14:01:17.989Z,0.90
2023-08-21T14:03:44.514Z,0.90
2023-08-21T14:06:12.671Z,1.00
2023-08-21T14:08:39.444Z,0.80
2023-08-21T14:11:05.874Z,0.63
2023-08-21T14:13:32.331Z,0.80
2023-08-21T14:15:58.778Z,0.80
2023-08-21T14:18:25.273Z,0.93
2023-08-21T14:20:51.748Z,0.93
2023-08-21T14:23:18.187Z,0.77
2023-08-21T14:25:44.583Z,1.10
2023-08-21T14:28:11.033Z,0.88
2023-08-21T14:30:37.593Z,0.90
2023-08-21T14:33:04.266Z,1.13
2023-08-21T14:35:30.772Z,1.17
2023-08-21T14:37:57.233Z,1.25
2023-08-21T14:40:26.715Z,1.00
2023-08-21T14:42:53.779Z,1.30
2023-08-21T14:45:20.282Z,1.10
2023-08-21T14:47:46.821Z,1.20
2023-08-21T14:50:13.297Z,1.00
2023-08-21T14:52:39.936Z,1.10
2023-08-21T14:55:06.715Z,1.00
2023-08-21T14:57:33.226Z,1.00
2023-08-21T14:59:59.749Z,0.90
2023-08-21T15:02:26.268Z,1.25
2023-08-21T15:04:52.717Z,1.00
2023-08-21T15:07:19.149Z,1.13
2023-08-21T15:09:45.778Z,1.10
2023-08-21T15:12:12.248Z,1.10
2023-08-21T15:14:38.672Z,1.10
2023-08-21T15:17:18.160Z,0.95
2023-08-21T15:19:45.364Z,1.02
2023-08-21T15:22:11.759Z,1.15
2023-08-21T15:24:38.169Z,0.90
2023-08-21T15:27:04.668Z,1.00
2023-08-21T15:29:31.077Z,1.02
2023-08-21T15:31:57.580Z,1.10
2023-08-21T15:34:24.012Z,0.85
2023-08-21T15:36:50.502Z,1.00
2023-08-21T15:39:16.910Z,1.10
2023-08-21T15:41:43.524Z,1.15
2023-08-21T15:44:09.921Z,0.90
2023-08-21T15:46:36.569Z,0.68
2023-08-21T15:49:03.001Z,0.90
2023-08-21T15:51:29.513Z,0.77
2023-08-21T15:53:55.961Z,0.80
2023-08-21T15:56:22.392Z,0.98
2023-08-21T15:58:48.810Z,0.80
2023-08-21T16:01:15.318Z,0.50
2023-08-21T16:03:41.961Z,0.60
2023-08-21T16:06:08.450Z,0.98
2023-08-21T16:08:34.844Z,0.80
2023-08-21T16:11:01.325Z,0.63
2023-08-21T16:13:27.732Z,0.60
2023-08-21T16:15:54.206Z,0.50
2023-08-21T16:18:20.645Z,0.73
2023-08-21T16:20:47.033Z,0.70
2023-08-21T16:23:13.514Z,0.47
2023-08-21T16:25:39.920Z,0.87
2023-08-21T16:28:06.410Z,0.40
2023-08-21T16:30:32.850Z,0.60
2023-08-21T16:32:59.350Z,0.90
2023-08-21T16:35:26.320Z,0.70
2023-08-21T16:37:52.785Z,0.53
2023-08-21T16:40:19.208Z,0.60
2023-08-21T16:42:45.694Z,0.60
2023-08-21T16:45:13.921Z,0.90
2023-08-21T16:47:40.478Z,0.60
2023-08-21T16:50:07.552Z,0.83
2023-08-21T16:52:34.125Z,0.80
2023-08-21T16:55:00.804Z,0.80
2023-08-21T16:57:27.503Z,1.00
2023-08-21T16:59:55.591Z,1.20
2023-08-21T17:02:23.960Z,1.00
2023-08-21T17:04:50.740Z,1.30
2023-08-21T17:07:19.002Z,1.30
2023-08-21T17:09:46.826Z,1.13
2023-08-21T17:12:13.732Z,1.48
2023-08-21T17:14:40.547Z,1.37
2023-08-21T17:17:07.154Z,1.42
2023-08-21T17:19:33.589Z,1.30
2023-08-21T17:22:00.153Z,1.33
2023-08-21T17:24:26.588Z,1.20
2023-08-21T17:26:53.134Z,1.40
2023-08-21T17:29:19.522Z,1.25
2023-08-21T17:31:45.967Z,1.50
2023-08-21T17:34:12.406Z,1.50
2023-08-21T17:36:38.888Z,1.10
2023-08-21T17:39:05.516Z,1.77
2023-08-21T17:41:31.953Z,1.33
2023-08-21T17:43:58.396Z,1.10
2023-08-21T17:46:24.828Z,1.20
2023-08-21T17:48:51.252Z,1.23
2023-08-21T17:51:17.733Z,1.00
2023-08-21T17:53:44.158Z,1.10
2023-08-21T17:56:12.495Z,1.17
2023-08-21T17:58:39.262Z,1.10
2023-08-21T18:01:06.037Z,1.25
2023-08-21T18:03:32.581Z,1.63
2023-08-21T18:05:59.618Z,1.20
2023-08-21T18:08:26.003Z,1.20
2023-08-21T18:10:52.689Z,1.48
2023-08-21T18:13:19.585Z,1.30
2023-08-21T18:15:49.887Z,1.47
2023-08-21T18:18:16.375Z,1.40
2023-08-21T18:20:55.550Z,1.63
2023-08-21T18:23:23.388Z,1.10
2023-08-21T18:25:50.105Z,1.27
2023-08-21T18:28:23.540Z,1.30
2023-08-21T18:30:51.388Z,1.17
2023-08-21T18:33:18.122Z,1.13
2023-08-21T18:35:44.528Z,1.27
2023-08-21T18:38:11.996Z,1.15
2023-08-21T18:40:40.734Z,1.30
2023-08-21T18:43:07.376Z,1.42
2023-08-21T18:45:34.106Z,1.77
2023-08-21T18:48:00.604Z,1.48
2023-08-21T18:50:36.467Z,1.90
2023-08-21T18:53:03.569Z,2.17
2023-08-21T18:55:30.351Z,1.23
2023-08-21T18:57:57.300Z,1.35
2023-08-21T19:00:24.155Z,1.52
2023-08-21T19:02:50.802Z,1.17
2023-08-21T19:05:17.344Z,1.30
2023-08-21T19:07:43.759Z,1.30
2023-08-21T19:10:10.627Z,1.50
2023-08-21T19:12:37.106Z,1.35
2023-08-21T19:15:06.735Z,1.58
2023-08-21T19:17:33.143Z,1.30
2023-08-21T19:19:59.620Z,1.20
2023-08-21T19:22:26.252Z,1.55
2023-08-21T19:24:53.172Z,1.05
2023-08-21T19:27:19.584Z,1.40
2023-08-21T19:29:46.240Z,1.23
2023-08-21T19:32:12.771Z,1.70
2023-08-21T19:34:39.567Z,1.27
2023-08-21T19:37:06.028Z,1.65
2023-08-21T19:39:33.486Z,1.35
2023-08-21T19:42:00.613Z,1.40
2023-08-21T19:44:30.528Z,1.35
2023-08-21T19:46:57.428Z,1.40
2023-08-21T19:49:34.752Z,1.23
2023-08-21T19:52:03.882Z,1.50
2023-08-21T19:54:30.331Z,1.30
2023-08-21T19:56:56.871Z,1.60
2023-08-21T19:59:23.428Z,1.30
2023-08-21T20:01:50.253Z,1.45
2023-08-21T20:04:16.936Z,1.13
2023-08-21T20:06:43.408Z,1.43
2023-08-21T20:09:11.496Z,1.35
2023-08-21T20:11:38.176Z,1.55
2023-08-21T20:14:20.363Z,1.25
2023-08-21T20:16:47.228Z,1.30
2023-08-21T20:19:13.987Z,1.30
2023-08-21T20:21:40.448Z,1.23
2023-08-21T20:24:06.946Z,1.55
2023-08-21T20:26:34.504Z,1.70
2023-08-21T20:29:01.137Z,1.95
2023-08-21T20:31:27.646Z,1.50
2023-08-21T20:33:54.087Z,1.52
2023-08-21T20:36:20.853Z,1.80
2023-08-21T20:38:47.373Z,1.75
2023-08-21T20:41:14.425Z,1.33
2023-08-21T20:43:41.011Z,1.70
2023-08-21T20:46:07.827Z,1.30
2023-08-21T20:48:34.540Z,1.50
2023-08-21T20:51:01.313Z,1.50
2023-08-21T20:53:28.038Z,1.58
2023-08-21T20:55:56.340Z,1.30
2023-08-21T20:58:22.802Z,1.70
2023-08-21T21:00:49.277Z,1.30
2023-08-21T21:03:15.876Z,1.60
2023-08-21T21:05:42.573Z,1.30
2023-08-21T21:08:09.007Z,1.50
2023-08-21T21:10:35.646Z,1.10
2023-08-21T21:13:03.802Z,1.20
2023-08-21T21:15:30.524Z,1.20
2023-08-21T21:17:57.849Z,1.33
2023-08-21T21:20:24.745Z,1.40
2023-08-21T21:22:51.423Z,1.30
2023-08-21T21:25:17.887Z,1.00
2023-08-21T21:27:44.452Z,1.20
2023-08-21T21:30:11.100Z,1.30
2023-08-21T21:32:37.663Z,1.30
2023-08-21T21:35:04.362Z,1.05
2023-08-21T21:37:30.921Z,2.10
2023-08-21T21:39:57.399Z,1.95
2023-08-21T21:42:23.866Z,2.15
2023-08-21T21:44:50.294Z,1.87
2023-08-21T21:47:16.681Z,2.08
2023-08-21T21:49:43.128Z,2.35
2023-08-21T21:52:09.544Z,2.17
2023-08-21T21:54:36.041Z,2.20
2023-08-21T21:57:04.136Z,1.63
2023-08-21T21:59:30.540Z,1.70
2023-08-21T22:01:57.233Z,2.05
2023-08-21T22:04:23.910Z,2.00
2023-08-21T22:06:50.364Z,1.95
2023-08-21T22:09:16.871Z,1.77
2023-08-21T22:11:43.323Z,1.95
2023-08-21T22:14:09.750Z,1.60
2023-08-21T22:16:36.273Z,2.10
2023-08-21T22:19:02.745Z,2.15
2023-08-21T22:21:29.267Z,2.20
2023-08-21T22:23:55.793Z,1.95
2023-08-21T22:26:22.248Z,2.20
2023-08-21T22:28:48.686Z,1.80
2023-08-21T22:31:19.773Z,1.50
2023-08-21T22:33:48.612Z,1.60
2023-08-21T22:36:15.385Z,1.90
2023-08-21T22:38:41.977Z,2.10
2023-08-21T22:41:08.353Z,2.00
2023-08-21T22:43:34.734Z,1.80
2023-08-21T22:46:04.800Z,1.60
2023-08-21T22:48:31.371Z,2.00
2023-08-21T22:50:57.813Z,2.05
2023-08-21T22:53:24.219Z,1.55
2023-08-21T22:55:56.901Z,1.90
2023-08-21T22:58:23.506Z,2.20
2023-08-21T23:00:50.005Z,1.83
2023-08-21T23:03:16.479Z,2.30
2023-08-21T23:05:42.923Z,1.80
2023-08-21T23:08:09.390Z,2.20
2023-08-21T23:10:35.864Z,2.60
2023-08-21T23:13:02.772Z,2.30
2023-08-21T23:15:29.196Z,2.30
2023-08-21T23:17:55.645Z,2.53
2023-08-21T23:20:22.163Z,2.40
2023-08-21T23:22:48.575Z,2.27
2023-08-21T23:25:15.521Z,3.08
2023-08-21T23:27:42.537Z,2.25
2023-08-21T23:30:09.644Z,2.95
2023-08-21T23:32:36.065Z,2.58
2023-08-21T23:35:02.734Z,2.43
2023-08-21T23:37:31.131Z,2.92
2023-08-21T23:39:57.568Z,2.50
2023-08-21T23:42:23.962Z,2.30
2023-08-21T23:44:50.365Z,2.08
2023-08-21T23:47:16.747Z,1.93
2023-08-21T23:49:43.228Z,1.85
2023-08-21T23:52:09.675Z,2.47
2023-08-21T23:54:36.059Z,2.10
2023-08-21T23:57:02.847Z,2.17
2023-08-21T23:59:29.312Z,2.10
